Locust, New Jersey
Current Conditions -  °F | °C
As of 9:55 PM on Wednesday 22 Oct 2014 (Local Time) from KBLM Reporting Station
Overcast Overcast  
Wind Chill: 11°   Ceiling: 1900
Heat Index: 11°   Visibility: 8mi
Dew Point:   Wind: 18mph
Humidity: 76%   Direction: 340°NNW
Pressure: 29.74"   Gusts: 26mph
Location:  40.3613°N, 74.0061°W
Report Text: KBLM 230155Z AUTO 34016G23KT 8SM FEW010 BKN019 OVC026 11/07 A2974 RMK AO1 P0011
Loading
Personal Weather Stations






























Interactive Weather Map
Tropical Storm Tracking
New forecast layout! Learn more

10-Day Weather Forecast

Advertisements
Track Severe Weather on mobile